createdAt,value
2018-10-21T00:01:12.462Z,16.97
2018-10-21T00:03:41.235Z,18.23
2018-10-21T00:06:09.970Z,18.85
2018-10-21T00:08:38.714Z,16.43
2018-10-21T00:11:07.857Z,16.33
2018-10-21T00:13:36.610Z,17.00
2018-10-21T00:16:05.433Z,17.77
2018-10-21T00:18:34.298Z,17.67
2018-10-21T00:21:03.159Z,15.57
2018-10-21T00:23:31.842Z,17.50
2018-10-21T00:26:00.602Z,16.90
2018-10-21T00:28:29.342Z,18.30
2018-10-21T00:30:58.083Z,18.30
2018-10-21T00:33:26.869Z,19.40
2018-10-21T00:35:55.650Z,19.83
2018-10-21T00:38:24.370Z,15.67
2018-10-21T00:40:53.113Z,20.83
2018-10-21T00:43:21.858Z,19.45
2018-10-21T00:45:51.825Z,19.87
2018-10-21T00:48:20.600Z,21.37
2018-10-21T00:50:49.359Z,20.30
2018-10-21T00:53:18.114Z,21.77
2018-10-21T00:55:46.857Z,22.47
2018-10-21T00:58:15.619Z,21.07
2018-10-21T01:00:44.402Z,20.93
2018-10-21T01:03:13.270Z,19.10
2018-10-21T01:05:41.954Z,18.80
2018-10-21T01:08:11.121Z,20.97
2018-10-21T01:10:39.869Z,21.57
2018-10-21T01:13:08.622Z,18.73
2018-10-21T01:15:37.428Z,21.07
2018-10-21T01:18:06.254Z,20.80
2018-10-21T01:20:35.042Z,21.27
2018-10-21T01:23:04.330Z,19.43
2018-10-21T01:25:33.078Z,20.67
2018-10-21T01:28:01.818Z,19.50
2018-10-21T01:30:30.552Z,19.60
2018-10-21T01:32:59.373Z,18.17
2018-10-21T01:35:28.142Z,20.30
2018-10-21T01:37:56.924Z,19.07
2018-10-21T01:40:29.502Z,18.40
2018-10-21T01:42:58.398Z,17.93
2018-10-21T01:45:27.189Z,17.77
2018-10-21T01:47:57.387Z,19.67
2018-10-21T01:50:26.259Z,19.57
2018-10-21T01:52:56.169Z,19.07
2018-10-21T01:55:25.198Z,15.83
2018-10-21T01:57:54.702Z,19.90
2018-10-21T02:00:24.058Z,18.00
2018-10-21T02:02:53.072Z,19.37
2018-10-21T02:05:22.088Z,17.80
2018-10-21T02:07:50.910Z,17.17
2018-10-21T02:10:19.649Z,17.95
2018-10-21T02:12:48.405Z,19.50
2018-10-21T02:15:17.172Z,18.60
2018-10-21T02:17:45.902Z,14.97
2018-10-21T02:20:15.362Z,16.37
2018-10-21T02:22:44.890Z,19.37
2018-10-21T02:25:13.666Z,18.30
2018-10-21T02:27:43.190Z,17.73
2018-10-21T02:30:16.970Z,19.12
2018-10-21T02:32:46.586Z,18.67
2018-10-21T02:35:15.886Z,19.00
2018-10-21T02:37:45.088Z,17.20
2018-10-21T02:41:36.838Z,15.67
2018-10-21T02:44:06.734Z,16.77
2018-10-21T02:46:36.054Z,16.33
2018-10-21T02:49:06.273Z,18.37
2018-10-21T02:51:35.030Z,15.83
2018-10-21T02:54:04.730Z,15.23
2018-10-21T02:56:33.526Z,14.43
2018-10-21T02:59:02.282Z,14.57
2018-10-21T03:01:31.055Z,15.17
2018-10-21T03:03:59.842Z,15.13
2018-10-21T03:06:28.634Z,15.47
2018-10-21T03:08:57.429Z,14.87
2018-10-21T03:11:26.128Z,15.87
2018-10-21T03:13:56.388Z,13.47
2018-10-21T03:16:25.154Z,14.77
2018-10-21T03:18:53.908Z,14.13
2018-10-21T03:21:22.776Z,16.07
2018-10-21T03:23:51.413Z,14.17
2018-10-21T03:26:20.173Z,12.55
2018-10-21T03:28:48.978Z,14.90
2018-10-21T03:31:17.706Z,13.33
2018-10-21T03:33:46.684Z,14.77
2018-10-21T03:36:15.383Z,14.37
2018-10-21T03:38:44.192Z,13.47
2018-10-21T03:41:12.980Z,14.00
2018-10-21T03:43:41.722Z,12.93
2018-10-21T03:46:12.079Z,15.00
2018-10-21T03:48:40.949Z,13.63
2018-10-21T03:51:09.716Z,14.55
2018-10-21T03:53:38.535Z,13.13
2018-10-21T03:56:07.306Z,13.77
2018-10-21T03:58:36.065Z,12.73
2018-10-21T04:01:05.254Z,14.57
2018-10-21T04:03:34.002Z,15.37
2018-10-21T04:06:03.213Z,15.40
2018-10-21T04:08:32.001Z,15.43
2018-10-21T04:11:00.794Z,16.20
2018-10-21T04:13:29.634Z,15.73
2018-10-21T04:15:58.387Z,15.90
2018-10-21T04:18:27.155Z,15.70
2018-10-21T04:20:55.950Z,15.43
2018-10-21T04:23:25.559Z,13.93
2018-10-21T04:25:54.348Z,14.23
2018-10-21T04:28:23.106Z,17.30
2018-10-21T04:30:51.893Z,13.80
2018-10-21T04:33:52.529Z,16.87
2018-10-21T04:36:36.794Z,15.20
2018-10-21T04:39:25.801Z,12.83
2018-10-21T04:41:55.147Z,15.77
2018-10-21T04:44:23.914Z,14.97
2018-10-21T04:46:52.789Z,14.63
2018-10-21T04:49:21.398Z,13.47
2018-10-21T04:51:50.142Z,14.33
2018-10-21T04:54:18.883Z,12.27
2018-10-21T04:56:47.659Z,13.27
2018-10-21T04:59:16.398Z,15.37
2018-10-21T05:01:45.207Z,14.27
2018-10-21T05:04:14.107Z,13.40
2018-10-21T05:06:42.853Z,16.47
2018-10-21T05:09:11.656Z,15.93
2018-10-21T05:11:40.421Z,15.77
2018-10-21T05:14:09.209Z,15.47
2018-10-21T05:16:37.990Z,15.50
2018-10-21T05:19:06.705Z,15.03
2018-10-21T05:21:35.426Z,15.43
2018-10-21T05:24:04.668Z,15.33
2018-10-21T05:26:33.474Z,16.10
2018-10-21T05:29:02.217Z,14.67
2018-10-21T05:31:30.938Z,16.53
2018-10-21T05:33:59.784Z,17.70
2018-10-21T05:36:28.494Z,18.77
2018-10-21T05:38:57.658Z,18.53
2018-10-21T05:41:26.850Z,17.03
2018-10-21T05:43:56.079Z,18.00
2018-10-21T05:46:38.432Z,18.90
2018-10-21T05:49:07.441Z,21.00
2018-10-21T05:51:36.294Z,15.80
2018-10-21T05:54:05.509Z,14.90
2018-10-21T05:56:34.271Z,14.70
2018-10-21T05:59:03.246Z,18.63
2018-10-21T06:01:32.085Z,18.10
2018-10-21T06:04:01.806Z,16.53
2018-10-21T06:06:30.498Z,17.70
2018-10-21T06:08:59.274Z,16.93
2018-10-21T06:11:28.082Z,17.63
2018-10-21T06:13:57.126Z,15.63
2018-10-21T06:16:26.547Z,15.13
2018-10-21T06:18:59.753Z,16.93
2018-10-21T06:21:28.493Z,16.73
2018-10-21T06:23:57.283Z,17.03
2018-10-21T06:26:26.714Z,18.07
2018-10-21T06:28:55.474Z,16.47
2018-10-21T06:31:24.198Z,19.57
2018-10-21T06:33:52.946Z,18.97
2018-10-21T06:36:21.730Z,19.77
2018-10-21T06:38:50.527Z,19.57
2018-10-21T06:41:19.323Z,19.57
2018-10-21T06:43:48.076Z,19.67
2018-10-21T06:46:16.849Z,19.73
2018-10-21T06:48:46.130Z,19.73
2018-10-21T06:51:14.937Z,21.00
2018-10-21T06:53:43.610Z,22.30
2018-10-21T06:56:12.406Z,20.00
2018-10-21T06:58:41.146Z,19.67
2018-10-21T07:01:09.966Z,19.93
2018-10-21T07:03:38.746Z,18.87
2018-10-21T07:06:14.083Z,19.70
2018-10-21T07:08:43.326Z,18.93
2018-10-21T07:11:12.113Z,21.33
2018-10-21T07:13:41.066Z,20.43
2018-10-21T07:16:10.489Z,20.70
2018-10-21T07:18:39.780Z,20.97
2018-10-21T07:21:08.576Z,19.37
2018-10-21T07:23:37.471Z,21.80
2018-10-21T07:26:06.548Z,21.30
2018-10-21T07:28:35.300Z,21.70
2018-10-21T07:31:04.740Z,20.00
2018-10-21T07:33:33.512Z,19.93
2018-10-21T07:36:02.382Z,20.57
2018-10-21T07:38:31.167Z,20.43
2018-10-21T07:40:59.947Z,20.07
2018-10-21T07:43:28.726Z,18.93
2018-10-21T07:45:57.493Z,21.27
2018-10-21T07:48:26.232Z,20.43
2018-10-21T07:50:54.961Z,22.20
2018-10-21T07:53:23.702Z,21.60
2018-10-21T07:55:52.490Z,19.23
2018-10-21T07:58:21.238Z,20.83
2018-10-21T08:00:50.025Z,22.90
2018-10-21T08:03:19.326Z,20.07
2018-10-21T08:05:59.502Z,19.10
2018-10-21T08:08:28.532Z,19.73
2018-10-21T08:10:57.297Z,21.07
2018-10-21T08:13:27.120Z,18.63
2018-10-21T08:15:55.868Z,19.80
2018-10-21T08:18:24.615Z,19.03
2018-10-21T08:20:53.374Z,22.40
2018-10-21T08:23:22.121Z,19.92
2018-10-21T08:25:50.906Z,19.70
2018-10-21T08:28:19.683Z,19.67
2018-10-21T08:30:48.435Z,18.73
2018-10-21T08:33:17.150Z,21.48
2018-10-21T08:35:45.975Z,19.37
2018-10-21T08:38:14.749Z,20.20
2018-10-21T08:40:43.555Z,19.50
2018-10-21T08:43:12.325Z,18.00
2018-10-21T08:45:41.094Z,18.83
2018-10-21T08:48:09.839Z,17.37
2018-10-21T08:50:38.635Z,19.33
2018-10-21T08:53:07.422Z,18.20
2018-10-21T08:55:36.175Z,18.83
2018-10-21T08:58:05.019Z,17.43
2018-10-21T09:00:33.766Z,18.77
2018-10-21T09:03:02.551Z,16.70
2018-10-21T09:05:31.350Z,17.77
2018-10-21T09:08:00.115Z,17.57
2018-10-21T09:10:28.917Z,19.10
2018-10-21T09:12:57.644Z,19.27
2018-10-21T09:15:26.493Z,16.23
2018-10-21T09:17:55.175Z,16.67
2018-10-21T09:20:23.927Z,19.67
2018-10-21T09:22:52.751Z,17.83
2018-10-21T09:25:21.506Z,17.93
2018-10-21T09:27:50.343Z,18.47
2018-10-21T09:30:19.170Z,17.80
2018-10-21T09:32:47.922Z,20.20
2018-10-21T09:35:17.967Z,19.70
2018-10-21T09:37:46.722Z,19.67
2018-10-21T09:40:17.840Z,18.73
2018-10-21T09:42:47.043Z,17.70
2018-10-21T09:45:17.195Z,19.73
2018-10-21T09:47:46.214Z,17.30
2018-10-21T09:50:16.024Z,17.80
2018-10-21T09:52:44.772Z,18.03
2018-10-21T09:55:19.006Z,16.32
2018-10-21T09:57:48.523Z,17.40
2018-10-21T10:00:22.764Z,17.10
2018-10-21T10:02:56.900Z,16.23
2018-10-21T10:05:25.696Z,17.90
2018-10-21T10:07:55.313Z,17.90
2018-10-21T10:10:24.710Z,16.70
2018-10-21T10:12:53.487Z,15.80
2018-10-21T10:15:22.229Z,17.50
2018-10-21T10:17:51.041Z,17.30
2018-10-21T10:20:20.949Z,16.32
2018-10-21T10:22:49.719Z,16.50
2018-10-21T10:25:18.634Z,16.93
2018-10-21T10:27:47.247Z,17.27
2018-10-21T10:30:16.030Z,16.30
2018-10-21T10:32:44.807Z,15.37
2018-10-21T10:35:14.418Z,15.20
2018-10-21T10:37:43.178Z,15.60
2018-10-21T10:40:13.046Z,17.35
2018-10-21T10:42:42.030Z,16.33
2018-10-21T10:45:10.791Z,15.33
2018-10-21T10:47:39.787Z,15.63
2018-10-21T10:50:09.909Z,14.80
2018-10-21T10:52:38.897Z,18.52
2018-10-21T10:55:08.208Z,17.43
2018-10-21T10:57:36.853Z,15.33
2018-10-21T11:00:08.538Z,19.70
2018-10-21T11:02:37.217Z,16.23
2018-10-21T11:05:06.470Z,16.20
2018-10-21T11:07:35.262Z,16.00
2018-10-21T11:10:04.296Z,18.30
2018-10-21T11:12:33.008Z,17.80
2018-10-21T11:15:01.775Z,15.97
2018-10-21T11:17:30.527Z,17.10
2018-10-21T11:19:59.275Z,15.97
2018-10-21T11:22:28.090Z,16.47
2018-10-21T11:24:56.816Z,15.93
2018-10-21T11:27:25.553Z,15.10
2018-10-21T11:29:54.294Z,16.43
2018-10-21T11:32:23.014Z,15.57
2018-10-21T11:34:51.781Z,16.70
2018-10-21T11:37:20.651Z,15.68
2018-10-21T11:39:49.308Z,15.50
2018-10-21T11:42:18.094Z,15.33
2018-10-21T11:44:46.932Z,16.23
2018-10-21T11:47:15.674Z,14.93
2018-10-21T11:49:44.410Z,14.83
2018-10-21T11:52:13.244Z,16.20
2018-10-21T11:54:41.870Z,15.20
2018-10-21T11:57:10.658Z,15.48
2018-10-21T11:59:39.412Z,14.40
2018-10-21T12:02:08.245Z,16.53
2018-10-21T12:04:36.991Z,15.00
2018-10-21T12:07:05.761Z,16.40
2018-10-21T12:09:34.542Z,15.80
2018-10-21T12:12:03.344Z,14.33
2018-10-21T12:14:32.122Z,16.60
2018-10-21T12:17:00.858Z,15.73
2018-10-21T12:19:29.774Z,15.33
2018-10-21T12:21:58.573Z,16.07
2018-10-21T12:24:27.360Z,15.30
2018-10-21T12:26:56.114Z,16.30
2018-10-21T12:29:24.844Z,15.47
2018-10-21T12:31:53.627Z,15.43
2018-10-21T12:34:22.452Z,14.77
2018-10-21T12:36:51.202Z,15.70
2018-10-21T12:39:19.941Z,16.70
2018-10-21T12:41:48.679Z,15.93
2018-10-21T12:44:17.474Z,14.37
2018-10-21T12:46:46.226Z,17.63
2018-10-21T12:49:15.050Z,15.10
2018-10-21T12:51:43.718Z,14.10
2018-10-21T12:54:12.577Z,16.77
2018-10-21T12:56:41.268Z,17.10
2018-10-21T12:59:10.002Z,16.00
2018-10-21T13:01:38.743Z,17.23
2018-10-21T13:04:07.492Z,17.43
2018-10-21T13:06:36.217Z,15.10
2018-10-21T13:09:06.782Z,19.17
2018-10-21T13:11:35.570Z,16.67
2018-10-21T13:14:04.678Z,16.50
2018-10-21T13:16:33.458Z,18.13
2018-10-21T13:19:02.227Z,15.00
2018-10-21T13:21:30.973Z,18.43
2018-10-21T13:23:59.743Z,18.03
2018-10-21T13:26:28.482Z,17.97
2018-10-21T13:28:57.367Z,15.03
2018-10-21T13:31:26.091Z,17.10
2018-10-21T13:33:54.839Z,17.90
2018-10-21T13:36:23.670Z,18.27
2018-10-21T13:38:52.423Z,18.13
2018-10-21T13:41:21.230Z,17.47
2018-10-21T13:43:49.984Z,17.67
2018-10-21T13:46:18.790Z,17.37
2018-10-21T13:48:47.525Z,24.20
2018-10-21T13:51:16.242Z,19.57
2018-10-21T13:53:44.999Z,23.33
2018-10-21T13:56:13.805Z,20.77
2018-10-21T13:58:42.540Z,19.23
2018-10-21T14:01:11.479Z,18.37
2018-10-21T14:03:40.922Z,20.73
2018-10-21T14:06:09.686Z,16.43
2018-10-21T14:08:38.459Z,18.10
2018-10-21T14:11:07.198Z,19.33
2018-10-21T14:13:35.979Z,17.17
2018-10-21T14:16:04.888Z,19.07
2018-10-21T14:18:33.612Z,19.47
2018-10-21T14:21:02.586Z,19.47
2018-10-21T14:23:31.481Z,17.53
2018-10-21T14:26:00.222Z,19.00
2018-10-21T14:28:29.024Z,19.77
2018-10-21T14:30:57.815Z,19.10
2018-10-21T14:33:26.565Z,18.17
2018-10-21T14:35:55.361Z,19.03
2018-10-21T14:38:24.131Z,20.00
2018-10-21T14:40:52.887Z,19.60
2018-10-21T14:43:21.674Z,20.07
2018-10-21T14:45:50.528Z,20.63
2018-10-21T14:48:19.254Z,19.10
2018-10-21T14:50:48.038Z,19.20
2018-10-21T14:53:16.779Z,18.47
2018-10-21T14:55:45.537Z,19.77
2018-10-21T14:58:14.342Z,19.00
2018-10-21T15:00:43.165Z,20.53
2018-10-21T15:03:12.049Z,19.82
2018-10-21T15:05:40.603Z,20.70
2018-10-21T15:08:09.410Z,21.10
2018-10-21T15:10:38.090Z,19.53
2018-10-21T15:13:06.826Z,18.83
2018-10-21T15:15:35.688Z,20.57
2018-10-21T15:18:04.629Z,21.35
2018-10-21T15:20:33.347Z,20.87
2018-10-21T15:23:02.187Z,21.77
2018-10-21T15:25:30.875Z,19.97
2018-10-21T15:27:59.728Z,20.70
2018-10-21T15:30:28.442Z,23.57
2018-10-21T15:32:57.215Z,24.37
2018-10-21T15:35:25.948Z,22.33
2018-10-21T15:37:54.761Z,22.47
2018-10-21T15:40:23.476Z,21.43
2018-10-21T15:42:52.233Z,22.80
2018-10-21T15:45:20.986Z,20.73
2018-10-21T15:47:49.757Z,20.70
2018-10-21T15:50:18.616Z,19.83
2018-10-21T15:52:47.261Z,21.83
2018-10-21T15:55:16.003Z,23.50
2018-10-21T15:57:44.803Z,22.27
2018-10-21T16:00:13.775Z,23.40
2018-10-21T16:02:43.050Z,23.53
2018-10-21T16:05:12.287Z,22.55
2018-10-21T16:07:41.021Z,22.53
2018-10-21T16:10:10.344Z,22.82
2018-10-21T16:12:39.224Z,19.37
2018-10-21T16:15:11.231Z,21.93
2018-10-21T16:17:39.986Z,20.33
2018-10-21T16:20:08.783Z,21.43
2018-10-21T16:22:39.024Z,20.53
2018-10-21T16:25:09.347Z,20.60
2018-10-21T16:27:38.128Z,20.60
2018-10-21T16:30:09.830Z,20.00
2018-10-21T16:32:39.097Z,20.20
2018-10-21T16:35:08.384Z,19.43
2018-10-21T16:37:37.566Z,23.23
2018-10-21T16:40:08.126Z,23.37
2018-10-21T16:42:37.099Z,22.87
2018-10-21T16:45:20.080Z,18.23
2018-10-21T16:47:48.718Z,22.23
2018-10-21T16:50:17.511Z,18.13
2018-10-21T16:52:46.983Z,19.63
2018-10-21T16:55:16.425Z,20.80
2018-10-21T16:57:45.198Z,20.87
2018-10-21T17:00:15.267Z,21.67
2018-10-21T17:02:44.001Z,26.67
2018-10-21T17:05:12.841Z,23.07
2018-10-21T17:07:41.557Z,26.20
2018-10-21T17:10:11.241Z,44.50
2018-10-21T17:12:39.795Z,19.10
2018-10-21T17:15:09.474Z,16.93
2018-10-21T17:17:38.973Z,18.40
2018-10-21T17:20:12.588Z,17.93
2018-10-21T17:22:42.023Z,20.73
2018-10-21T17:25:11.045Z,18.35
2018-10-21T17:27:39.796Z,18.77
2018-10-21T17:30:13.044Z,18.83
2018-10-21T17:32:41.869Z,18.10
2018-10-21T17:35:10.766Z,18.82
2018-10-21T17:37:39.808Z,17.60
2018-10-21T17:40:09.837Z,17.63
2018-10-21T17:42:38.529Z,17.70
2018-10-21T17:45:09.115Z,18.03
2018-10-21T17:47:37.882Z,17.23
2018-10-21T17:50:07.651Z,17.20
2018-10-21T17:52:36.540Z,18.80
2018-10-21T17:55:05.480Z,19.30
2018-10-21T17:57:34.202Z,20.60
2018-10-21T18:00:03.350Z,19.33
2018-10-21T18:02:32.219Z,17.43
2018-10-21T18:05:01.053Z,20.90
2018-10-21T18:07:29.818Z,19.27
2018-10-21T18:09:58.633Z,18.73
2018-10-21T18:12:27.386Z,20.43
2018-10-21T18:14:56.197Z,20.10
2018-10-21T18:17:25.031Z,19.93
2018-10-21T18:19:53.790Z,19.03
2018-10-21T18:22:22.525Z,19.77
2018-10-21T18:24:51.286Z,20.57
2018-10-21T18:27:20.443Z,20.05
2018-10-21T18:29:49.311Z,21.53
2018-10-21T18:32:18.058Z,19.92
2018-10-21T18:34:46.802Z,22.60
2018-10-21T18:37:15.620Z,21.97
2018-10-21T18:39:44.410Z,21.17
2018-10-21T18:42:13.810Z,22.73
2018-10-21T18:44:42.599Z,21.63
2018-10-21T18:47:11.365Z,21.90
2018-10-21T18:49:40.128Z,21.20
2018-10-21T18:52:09.018Z,22.30
2018-10-21T18:54:37.766Z,23.77
2018-10-21T18:57:06.639Z,21.93
2018-10-21T18:59:35.394Z,20.30
2018-10-21T19:02:04.390Z,23.27
2018-10-21T19:04:33.211Z,23.17
2018-10-21T19:07:02.054Z,23.27
2018-10-21T19:09:30.752Z,22.17
2018-10-21T19:11:59.519Z,20.10
2018-10-21T19:14:28.266Z,23.97
2018-10-21T19:16:57.989Z,24.40
2018-10-21T19:19:26.791Z,23.17
2018-10-21T19:21:55.565Z,20.63
2018-10-21T19:24:24.373Z,23.77
2018-10-21T19:26:53.280Z,23.97
2018-10-21T19:29:21.992Z,22.40
2018-10-21T19:31:51.678Z,25.00
2018-10-21T19:34:21.839Z,24.80
2018-10-21T19:36:50.510Z,22.37
2018-10-21T19:39:19.292Z,24.03
2018-10-21T19:41:48.004Z,24.10
2018-10-21T19:44:16.751Z,25.70
2018-10-21T19:46:45.533Z,25.47
2018-10-21T19:49:14.433Z,23.90
2018-10-21T19:51:43.396Z,27.20
2018-10-21T19:54:12.090Z,26.73
2018-10-21T19:56:40.895Z,23.80
2018-10-21T19:59:09.681Z,25.37
2018-10-21T20:01:38.482Z,27.17
2018-10-21T20:04:07.333Z,26.80
2018-10-21T20:06:36.054Z,26.13
2018-10-21T20:09:08.714Z,25.97
2018-10-21T20:11:38.047Z,24.80
2018-10-21T20:14:06.820Z,25.43
2018-10-21T20:16:35.625Z,27.30
2018-10-21T20:19:05.989Z,26.07
2018-10-21T20:21:34.729Z,25.27
2018-10-21T20:24:03.482Z,25.30
2018-10-21T20:26:33.491Z,25.03
2018-10-21T20:29:02.218Z,28.23
2018-10-21T20:31:30.957Z,27.83
2018-10-21T20:33:59.718Z,27.27
2018-10-21T20:36:28.607Z,28.43
2018-10-21T20:38:57.363Z,25.43
2018-10-21T20:41:26.123Z,24.53
2018-10-21T20:43:54.900Z,27.83
2018-10-21T20:46:23.730Z,27.10
2018-10-21T20:48:52.734Z,27.50
2018-10-21T20:51:21.616Z,27.23
2018-10-21T20:53:50.281Z,26.10
2018-10-21T20:56:19.002Z,24.77
2018-10-21T20:58:47.788Z,26.83
2018-10-21T21:01:16.573Z,29.53
2018-10-21T21:03:45.408Z,26.60
2018-10-21T21:06:14.204Z,27.43
2018-10-21T21:08:42.908Z,29.10
2018-10-21T21:11:11.720Z,29.30
2018-10-21T21:13:41.634Z,27.07
2018-10-21T21:16:10.432Z,29.33
2018-10-21T21:18:39.182Z,29.17
2018-10-21T21:21:07.963Z,31.33
2018-10-21T21:23:37.057Z,27.27
2018-10-21T21:26:05.802Z,30.70
2018-10-21T21:28:34.572Z,28.40
2018-10-21T21:31:04.303Z,35.13
2018-10-21T21:33:33.059Z,34.27
2018-10-21T21:36:01.947Z,29.70
2018-10-21T21:38:31.331Z,34.03
2018-10-21T21:41:00.744Z,35.93
2018-10-21T21:43:29.523Z,34.17
2018-10-21T21:45:58.342Z,33.10
2018-10-21T21:48:27.077Z,33.43
2018-10-21T21:50:55.843Z,31.97
2018-10-21T21:53:24.570Z,34.50
2018-10-21T21:55:53.314Z,31.13
2018-10-21T21:58:22.089Z,35.05
2018-10-21T22:00:50.959Z,34.20
2018-10-21T22:03:19.730Z,32.30
2018-10-21T22:05:48.462Z,33.90
2018-10-21T22:08:17.214Z,34.17
2018-10-21T22:10:46.539Z,34.17
2018-10-21T22:13:15.337Z,36.13
2018-10-21T22:15:44.098Z,37.90
2018-10-21T22:18:13.638Z,32.88
2018-10-21T22:20:42.378Z,32.07
2018-10-21T22:23:11.107Z,34.33
2018-10-21T22:25:40.007Z,32.87
2018-10-21T22:28:08.828Z,34.70
2018-10-21T22:30:37.576Z,33.17
2018-10-21T22:33:06.298Z,33.87
2018-10-21T22:35:35.066Z,34.83
2018-10-21T22:38:05.253Z,32.13
2018-10-21T22:40:34.063Z,33.63
2018-10-21T22:43:02.830Z,32.97
2018-10-21T22:45:31.622Z,34.60
2018-10-21T22:48:00.389Z,32.77
2018-10-21T22:50:29.118Z,31.63
2018-10-21T22:52:57.859Z,28.47
2018-10-21T22:55:26.630Z,30.97
2018-10-21T22:57:55.462Z,29.33
2018-10-21T23:00:24.205Z,28.40
2018-10-21T23:02:53.829Z,28.77
2018-10-21T23:05:23.032Z,28.87
2018-10-21T23:07:51.798Z,26.40
2018-10-21T23:10:20.567Z,24.87
2018-10-21T23:12:49.291Z,26.83
2018-10-21T23:15:18.071Z,25.37
2018-10-21T23:17:46.838Z,24.97
2018-10-21T23:20:15.592Z,22.83
2018-10-21T23:22:44.362Z,23.73
2018-10-21T23:25:13.113Z,21.90
2018-10-21T23:27:41.867Z,19.80
2018-10-21T23:30:10.663Z,21.03
2018-10-21T23:32:39.519Z,21.53
2018-10-21T23:35:08.251Z,18.73
2018-10-21T23:37:36.998Z,18.47
2018-10-21T23:40:06.648Z,19.27
2018-10-21T23:42:35.394Z,19.20
2018-10-21T23:45:05.039Z,19.93
2018-10-21T23:47:33.800Z,20.07
2018-10-21T23:50:02.544Z,18.87
2018-10-21T23:52:31.299Z,17.40
2018-10-21T23:55:00.060Z,19.67
2018-10-21T23:57:28.820Z,16.97
2018-10-21T23:59:57.575Z,14.80
